Mejorada del Campo, Spain
Current Conditions -  °F | °C
As of 4:30 PM on Friday 19 Dec 2014 (Local Time) from LEMD Reporting Station
Clear Clear  
Wind Chill: 55°   Ceiling: Unl
Heat Index: 55°   Visibility: 6mi
Dew Point: 45°   Wind: 6mph
Humidity: 67%   Direction: 180°S
Pressure: 30.39"   Gusts: NA
Location:  40.39°N, 3.48°W
Report Text: LEMD 191530Z 18005KT CAVOK 13/07 Q1029 NOSIG
Loading
Personal Weather Stations






























Interactive Weather Map New forecast layout! Learn more

10-Day Weather Forecast

Advertisements
Track Severe Weather on mobile